Futenma Marine Corps Air Station
ROTM : now visible

Airfield :











YOU CAN JOIN US ON...

 
LOGIN :

Register | Disclaimer

   EN    FR    IT 

 









Legend :    VFR   Marginal VFR   IFR   Intensive IFR   Very Intensive IFR
Visi :
Ceiling :
>= 8 km
>= 3000ft
5 to 8 km
1000 to 3000 ft
1500m to 5 km
500 to 1000 ft
800 to 1500m
200 to 500 ft
< 800m
< 200 ft
Symbols :   Thunderstorms  Fog  Heavy snow  Heavy precipitations  Wind > 20 kt






- Airport Elevation : 247 ft


ROTM - Futenma Marine Corps Air Station

CURRENT METAR :
  • 250056Z 04006KT 9999 SCT015 BKN060 BKN150 27/25 A2982 RMK SLP084 T02720254

EXPIRED METARs :
  • 242356Z 07004KT 9999 VCSH SCT015 BKN060 BKN150 27/25 A2981 RMK SLP082 60077 T02720254 10272 20262 53014

TAF TAF ROTM
Valid from the 24 at 21:00 until the 25 at 21:00 UTC


2421/2521 10005KT 9999 SCT015 SCT060 BKN150 QNH2977INS
TEMPO 2501/2503 11007KT 9000 -SHRA BKN015 BKN060 BKN150
BECMG 2509/2511 11005KT 9999 FEW020 SCT060 BKN150 QNH2978INS
FM252000 09010KT 9999 SCT015 SCT060 BKN150 QNH2976INS T30/2504Z T26/2518Z
RJJJ FIR / Asia



MET'MAP, your aeronautical weather chart ! - Copyright ORBIFLY December 2007 - Disclaimer

ORBIFLY MET'MAP TEAM :

Programming & Development : Alexandra Zaïnal
Original concept : Baudouin d'Aumeries
Technical & hardware support : Manuel Goepfert
Assistance : Marc-Olivier Méhu




SOURCES & CREDITS :

   NOAA       Earth
Advisory